Time;durP1;ratioP1;P1;durP2;ratioP2;P2;SDS_P1;SDS_P2;PMS_P1;PMS_P2;Temp;Humidity;BMP_temperature;BMP_pressure;BME280_temperature;BME280_humidity;BME280_pressure;Samples;Min_cycle;Max_cycle;Signal;HPM_P1;HPM_P2
2022/05/27 11:34:57;;;;;;;19.90;11.38;;;;;;;;;;6206189;22;20052;-76
2022/05/27 11:37:32;;;;;;;19.63;14.30;;;;;;;;;;6217267;23;20045;-77
2022/05/27 11:40:35;;;;;;;21.02;15.02;;;;;;;;;;6192130;23;20002;-80
2022/05/27 11:43:12;;;;;;;14.02;12.15;;;;;;;;;;6187565;23;20005;-78
2022/05/27 11:45:51;;;;;;;19.02;13.40;;;;;;;;;;6187209;23;20005;-81
2022/05/27 11:48:46;;;;;;;21.63;15.50;;;;;;;;;;6187373;23;20416;-77
2022/05/27 18:53:37;;;;;;;18.13;12.00;;;;;;;;;;6205316;23;20088;-78
2022/05/27 18:56:03;;;;;;;16.83;11.00;;;;;;;;;;6158488;23;20006;-78
2022/05/27 18:58:28;;;;;;;15.98;11.32;;;;;;;;;;6158780;23;20088;-78
2022/05/27 19:00:54;;;;;;;18.77;12.38;;;;;;;;;;6179519;23;20455;-86
2022/05/27 19:03:20;;;;;;;15.35;11.63;;;;;;;;;;6187872;23;20068;-87
2022/05/27 19:05:46;;;;;;;15.18;12.25;;;;;;;;;;6188086;23;20080;-82
2022/05/27 19:08:12;;;;;;;19.88;12.20;;;;;;;;;;6189923;23;20454;-85
2022/05/27 19:10:38;;;;;;;15.15;9.95;;;;;;;;;;6191251;23;20011;-85
2022/05/27 19:13:04;;;;;;;14.52;9.95;;;;;;;;;;6190165;23;20040;-86
2022/05/27 19:15:30;;;;;;;21.52;13.35;;;;;;;;;;6189328;23;20028;-86
2022/05/27 19:17:55;;;;;;;18.13;12.60;;;;;;;;;;6188247;23;20432;-85
2022/05/27 19:23:05;;;;;;;14.18;9.68;;;;;;;;;;6188287;23;20016;-86
2022/05/27 19:25:31;;;;;;;11.10;9.85;;;;;;;;;;6187998;23;20005;-88
2022/05/27 19:27:58;;;;;;;15.75;10.80;;;;;;;;;;6188127;23;20060;-87
2022/05/27 19:30:25;;;;;;;13.73;10.77;;;;;;;;;;6186686;23;20005;-88
2022/05/27 19:32:51;;;;;;;16.20;11.23;;;;;;;;;;6188449;23;19997;-86
2022/05/27 19:35:16;;;;;;;22.30;11.95;;;;;;;;;;6189326;23;20083;-87
2022/05/27 19:37:43;;;;;;;14.65;10.07;;;;;;;;;;6187969;23;20001;-86
2022/05/27 19:40:10;;;;;;;16.08;12.50;;;;;;;;;;6188052;23;20008;-87
2022/05/27 19:42:36;;;;;;;17.80;11.50;;;;;;;;;;6161528;23;20356;-86
2022/05/27 19:45:01;;;;;;;15.90;11.27;;;;;;;;;;6187768;23;20025;-87
2022/05/27 19:47:26;;;;;;;16.25;10.95;;;;;;;;;;6189017;23;20005;-87
2022/05/27 19:49:52;;;;;;;14.98;11.63;;;;;;;;;;6189017;23;20001;-87
2022/05/27 19:52:17;;;;;;;13.70;10.70;;;;;;;;;;6188277;23;20401;-88
2022/05/27 19:54:43;;;;;;;14.00;10.55;;;;;;;;;;6191091;23;20495;-88
2022/05/27 19:59:53;;;;;;;16.90;10.43;;;;;;;;;;6190446;23;20425;-87
2022/05/27 20:05:07;;;;;;;15.88;9.90;;;;;;;;;;6167652;23;20067;-87
2022/05/27 20:07:39;;;;;;;12.93;9.63;;;;;;;;;;6190701;23;20315;-88
2022/05/27 20:10:13;;;;;;;16.20;10.40;;;;;;;;;;6188578;23;20424;-86
2022/05/27 20:12:39;;;;;;;18.40;10.05;;;;;;;;;;6187929;23;20081;-84
2022/05/27 20:15:07;;;;;;;11.75;10.43;;;;;;;;;;6187854;23;20028;-86
2022/05/27 20:17:33;;;;;;;15.63;11.73;;;;;;;;;;6188337;23;20043;-85
2022/05/27 20:19:59;;;;;;;14.50;10.90;;;;;;;;;;6188055;23;20005;-86
2022/05/27 20:22:26;;;;;;;14.13;10.00;;;;;;;;;;6187854;23;20016;-83
2022/05/27 20:24:52;;;;;;;14.80;10.60;;;;;;;;;;6188789;23;20001;-86
2022/05/27 20:27:19;;;;;;;15.82;10.90;;;;;;;;;;6189794;23;20008;-87
2022/05/27 20:29:45;;;;;;;13.02;9.95;;;;;;;;;;6188945;23;20076;-88
2022/05/27 20:32:12;;;;;;;16.15;11.25;;;;;;;;;;6189283;23;20024;-84
2022/05/27 20:34:38;;;;;;;14.32;10.55;;;;;;;;;;6190999;23;20076;-86
2022/05/27 20:37:05;;;;;;;14.02;11.00;;;;;;;;;;6189770;23;20072;-86
2022/05/27 20:39:36;;;;;;;13.10;11.27;;;;;;;;;;6188149;23;20015;-81
2022/05/27 20:42:06;;;;;;;15.95;10.35;;;;;;;;;;6188358;23;20008;-85
2022/05/27 20:44:31;;;;;;;;;;;;;;;;;;6165080;23;20001;-84
2022/05/27 20:46:57;;;;;;;13.60;10.20;;;;;;;;;;6188638;23;19919;-87
2022/05/27 20:49:24;;;;;;;18.65;11.25;;;;;;;;;;6189565;23;20037;-88
2022/05/27 20:51:50;;;;;;;14.43;9.98;;;;;;;;;;6190006;23;20001;-87
2022/05/27 20:54:16;;;;;;;14.73;10.15;;;;;;;;;;6191885;23;20017;-88
2022/05/27 20:56:43;;;;;;;11.80;10.35;;;;;;;;;;6189316;23;20005;-87
2022/05/27 20:59:10;;;;;;;14.25;9.85;;;;;;;;;;6187645;23;20005;-87
2022/05/27 21:01:36;;;;;;;14.20;10.38;;;;;;;;;;6187697;23;20008;-83
2022/05/27 21:04:02;;;;;;;13.23;10.15;;;;;;;;;;6189722;23;20009;-80
2022/05/27 21:06:28;;;;;;;15.52;10.55;;;;;;;;;;6190262;23;20004;-87
2022/05/27 21:08:57;;;;;;;18.27;10.40;;;;;;;;;;6188308;23;20009;-88
2022/05/27 21:11:28;;;;;;;16.23;11.05;;;;;;;;;;6188751;23;20009;-86
2022/05/27 21:13:56;;;;;;;16.70;10.10;;;;;;;;;;6188142;23;20084;-86
2022/05/27 21:16:23;;;;;;;16.10;10.48;;;;;;;;;;6188443;23;20001;-87
2022/05/27 21:18:49;;;;;;;14.82;11.13;;;;;;;;;;6187740;23;20001;-86
2022/05/27 21:21:16;;;;;;;17.27;11.18;;;;;;;;;;6187325;23;20001;-87
2022/05/27 21:23:41;;;;;;;14.13;9.98;;;;;;;;;;6187465;23;20008;-87
2022/05/27 21:26:07;;;;;;;18.73;10.95;;;;;;;;;;6188287;23;20333;-88
2022/05/27 21:28:33;;;;;;;13.50;10.52;;;;;;;;;;6188396;23;20341;-86
2022/05/27 21:30:59;;;;;;;18.25;10.75;;;;;;;;;;6187213;23;20089;-85
2022/05/27 21:33:28;;;;;;;14.77;11.45;;;;;;;;;;6187220;23;20005;-85
2022/05/27 21:35:54;;;;;;;15.70;11.35;;;;;;;;;;6187726;23;20075;-86
2022/05/27 21:38:19;;;;;;;18.90;10.68;;;;;;;;;;6187556;23;20381;-88
2022/05/27 21:40:45;;;;;;;15.18;10.82;;;;;;;;;;6187908;23;20001;-85
2022/05/27 21:43:10;;;;;;;13.23;10.32;;;;;;;;;;6187042;23;20001;-83
2022/05/27 21:45:36;;;;;;;17.00;11.27;;;;;;;;;;6187663;23;20000;-85
2022/05/27 21:48:03;;;;;;;16.65;10.68;;;;;;;;;;6187069;23;20441;-82
2022/05/27 21:50:29;;;;;;;15.38;11.27;;;;;;;;;;6187612;23;20001;-85
2022/05/27 21:52:55;;;;;;;15.95;11.65;;;;;;;;;;6187625;23;20014;-86
2022/05/27 21:55:21;;;;;;;15.80;11.63;;;;;;;;;;6186685;23;20013;-85
2022/05/27 21:57:47;;;;;;;15.40;10.95;;;;;;;;;;6187189;23;20012;-84
2022/05/27 22:00:24;;;;;;;16.08;12.05;;;;;;;;;;6186779;23;20413;-86
2022/05/27 22:02:50;;;;;;;17.77;10.77;;;;;;;;;;6186759;23;20009;-86
2022/05/27 22:05:15;;;;;;;18.02;10.68;;;;;;;;;;6187693;23;20475;-85
2022/05/27 22:07:40;;;;;;;15.23;11.60;;;;;;;;;;6187794;23;20004;-85
2022/05/27 22:12:53;;;;;;;15.90;11.23;;;;;;;;;;6186226;23;20015;-86
2022/05/27 22:15:21;;;;;;;15.05;11.38;;;;;;;;;;6186923;23;20009;-83
2022/05/27 22:17:47;;;;;;;20.02;11.15;;;;;;;;;;6188021;23;20012;-86
2022/05/27 22:20:13;;;;;;;13.77;12.07;;;;;;;;;;6187106;23;20001;-82
2022/05/27 22:22:39;;;;;;;17.35;11.65;;;;;;;;;;6187687;23;20044;-85
2022/05/27 22:25:06;;;;;;;16.85;11.80;;;;;;;;;;6187182;23;20349;-86
2022/05/27 22:27:32;;;;;;;17.23;10.98;;;;;;;;;;6186483;23;20001;-86
2022/05/27 22:29:57;;;;;;;14.48;12.57;;;;;;;;;;6187094;23;20092;-86
2022/05/27 22:32:27;;;;;;;16.33;11.70;;;;;;;;;;6186958;23;20024;-86
2022/05/27 22:34:53;;;;;;;17.50;12.90;;;;;;;;;;6186533;23;20005;-86
2022/05/27 22:37:19;;;;;;;13.73;11.70;;;;;;;;;;6186700;23;20005;-85
2022/05/27 22:39:44;;;;;;;14.13;11.95;;;;;;;;;;6186147;23;20424;-86
2022/05/27 22:42:10;;;;;;;17.73;12.63;;;;;;;;;;6186656;23;20006;-86
2022/05/27 22:44:35;;;;;;;17.30;12.80;;;;;;;;;;6187176;23;20020;-86
2022/05/27 22:47:05;;;;;;;16.33;12.30;;;;;;;;;;6186857;23;20005;-84
2022/05/27 22:49:31;;;;;;;;;;;;;;;;;;6187013;23;20013;-85
2022/05/27 22:51:56;;;;;;;15.07;12.50;;;;;;;;;;6186242;23;20345;-86
2022/05/27 22:54:22;;;;;;;16.38;13.85;;;;;;;;;;6186324;23;20017;-86
2022/05/27 22:56:47;;;;;;;14.13;12.63;;;;;;;;;;6186005;23;20005;-85
2022/05/27 22:59:12;;;;;;;17.90;12.75;;;;;;;;;;6186647;23;20001;-85
2022/05/27 23:01:38;;;;;;;16.77;14.23;;;;;;;;;;6186595;23;20409;-80
2022/05/27 23:04:04;;;;;;;17.90;13.68;;;;;;;;;;6186874;23;20060;-90
